sensor_id;sensor_type;location;lat;lon;timestamp;P1;durP1;ratioP1;P2;durP2;ratioP2
67503;SDS011;54351;49.108;1.502;2022-12-07T00:01:44;633.53;;;573.28;;
67503;SDS011;54351;49.108;1.502;2022-12-07T00:04:11;635.78;;;584.15;;
67503;SDS011;54351;49.108;1.502;2022-12-07T00:06:39;584.97;;;535.22;;
67503;SDS011;54351;49.108;1.502;2022-12-07T00:09:06;599.55;;;536.00;;
67503;SDS011;54351;49.108;1.502;2022-12-07T00:11:33;594.20;;;537.58;;
67503;SDS011;54351;49.108;1.502;2022-12-07T00:13:59;594.55;;;510.02;;
67503;SDS011;54351;49.108;1.502;2022-12-07T00:16:27;590.40;;;530.80;;
67503;SDS011;54351;49.108;1.502;2022-12-07T00:18:54;538.60;;;483.25;;
67503;SDS011;54351;49.108;1.502;2022-12-07T00:21:24;549.95;;;507.80;;
67503;SDS011;54351;49.108;1.502;2022-12-07T00:23:51;542.17;;;502.15;;
67503;SDS011;54351;49.108;1.502;2022-12-07T00:26:19;558.40;;;500.52;;
67503;SDS011;54351;49.108;1.502;2022-12-07T00:28:49;500.55;;;458.70;;
67503;SDS011;54351;49.108;1.502;2022-12-07T00:31:16;563.53;;;517.88;;
67503;SDS011;54351;49.108;1.502;2022-12-07T00:33:42;538.13;;;485.55;;
67503;SDS011;54351;49.108;1.502;2022-12-07T00:36:09;520.05;;;469.13;;
67503;SDS011;54351;49.108;1.502;2022-12-07T00:38:36;535.53;;;493.27;;
67503;SDS011;54351;49.108;1.502;2022-12-07T00:41:03;609.20;;;500.55;;
67503;SDS011;54351;49.108;1.502;2022-12-07T00:43:30;556.67;;;502.80;;
67503;SDS011;54351;49.108;1.502;2022-12-07T00:45:56;525.15;;;485.42;;
67503;SDS011;54351;49.108;1.502;2022-12-07T00:48:23;547.17;;;487.80;;
67503;SDS011;54351;49.108;1.502;2022-12-07T00:50:49;566.00;;;523.45;;
67503;SDS011;54351;49.108;1.502;2022-12-07T00:53:16;574.85;;;515.90;;
67503;SDS011;54351;49.108;1.502;2022-12-07T00:55:42;516.33;;;472.17;;
67503;SDS011;54351;49.108;1.502;2022-12-07T00:58:08;547.85;;;455.45;;
67503;SDS011;54351;49.108;1.502;2022-12-07T01:00:38;478.55;;;437.20;;
67503;SDS011;54351;49.108;1.502;2022-12-07T01:03:05;525.88;;;478.25;;
67503;SDS011;54351;49.108;1.502;2022-12-07T01:05:31;602.35;;;491.45;;
67503;SDS011;54351;49.108;1.502;2022-12-07T01:07:57;501.98;;;453.27;;
67503;SDS011;54351;49.108;1.502;2022-12-07T01:10:25;539.35;;;475.83;;
67503;SDS011;54351;49.108;1.502;2022-12-07T01:12:51;517.78;;;456.05;;
67503;SDS011;54351;49.108;1.502;2022-12-07T01:15:18;510.65;;;456.75;;
67503;SDS011;54351;49.108;1.502;2022-12-07T01:17:44;514.00;;;467.52;;
67503;SDS011;54351;49.108;1.502;2022-12-07T01:20:10;571.58;;;511.50;;
67503;SDS011;54351;49.108;1.502;2022-12-07T01:22:37;537.55;;;458.10;;
67503;SDS011;54351;49.108;1.502;2022-12-07T01:25:04;590.30;;;455.85;;
67503;SDS011;54351;49.108;1.502;2022-12-07T01:27:30;509.35;;;458.15;;
67503;SDS011;54351;49.108;1.502;2022-12-07T01:29:56;501.92;;;425.20;;
67503;SDS011;54351;49.108;1.502;2022-12-07T01:32:22;448.40;;;394.80;;
67503;SDS011;54351;49.108;1.502;2022-12-07T01:34:48;502.02;;;442.77;;
67503;SDS011;54351;49.108;1.502;2022-12-07T01:37:14;624.03;;;420.23;;
67503;SDS011;54351;49.108;1.502;2022-12-07T01:39:40;463.50;;;429.35;;
67503;SDS011;54351;49.108;1.502;2022-12-07T01:42:10;550.85;;;498.77;;
67503;SDS011;54351;49.108;1.502;2022-12-07T01:47:21;338.45;;;295.73;;
67503;SDS011;54351;49.108;1.502;2022-12-07T01:49:47;357.13;;;326.15;;
67503;SDS011;54351;49.108;1.502;2022-12-07T01:57:12;417.02;;;378.77;;
67503;SDS011;54351;49.108;1.502;2022-12-07T01:59:39;436.02;;;378.73;;
67503;SDS011;54351;49.108;1.502;2022-12-07T02:02:07;493.65;;;394.70;;
67503;SDS011;54351;49.108;1.502;2022-12-07T02:04:35;490.67;;;452.73;;
67503;SDS011;54351;49.108;1.502;2022-12-07T02:07:02;591.92;;;441.98;;
67503;SDS011;54351;49.108;1.502;2022-12-07T02:09:29;476.50;;;428.90;;
67503;SDS011;54351;49.108;1.502;2022-12-07T02:11:55;570.20;;;405.80;;
67503;SDS011;54351;49.108;1.502;2022-12-07T02:14:21;650.67;;;352.95;;
67503;SDS011;54351;49.108;1.502;2022-12-07T02:25:08;695.05;;;424.88;;
67503;SDS011;54351;49.108;1.502;2022-12-07T02:30:25;501.60;;;451.83;;
67503;SDS011;54351;49.108;1.502;2022-12-07T02:38:16;405.90;;;349.92;;
67503;SDS011;54351;49.108;1.502;2022-12-07T02:40:42;511.33;;;344.05;;
67503;SDS011;54351;49.108;1.502;2022-12-07T02:45:43;473.75;;;339.83;;
67503;SDS011;54351;49.108;1.502;2022-12-07T02:48:11;394.08;;;291.55;;
67503;SDS011;54351;49.108;1.502;2022-12-07T02:50:38;396.38;;;324.08;;
67503;SDS011;54351;49.108;1.502;2022-12-07T02:53:04;389.55;;;357.20;;
67503;SDS011;54351;49.108;1.502;2022-12-07T02:55:36;499.27;;;341.35;;
67503;SDS011;54351;49.108;1.502;2022-12-07T03:00:37;488.83;;;327.15;;
67503;SDS011;54351;49.108;1.502;2022-12-07T03:03:09;478.35;;;308.85;;
67503;SDS011;54351;49.108;1.502;2022-12-07T03:08:10;437.90;;;269.65;;
67503;SDS011;54351;49.108;1.502;2022-12-07T03:10:46;475.92;;;285.80;;
67503;SDS011;54351;49.108;1.502;2022-12-07T03:13:18;430.42;;;232.00;;
67503;SDS011;54351;49.108;1.502;2022-12-07T03:18:22;564.92;;;307.00;;
67503;SDS011;54351;49.108;1.502;2022-12-07T03:20:50;392.38;;;298.63;;
67503;SDS011;54351;49.108;1.502;2022-12-07T03:23:18;395.75;;;244.52;;
67503;SDS011;54351;49.108;1.502;2022-12-07T03:25:49;339.60;;;291.90;;
67503;SDS011;54351;49.108;1.502;2022-12-07T03:28:19;428.30;;;318.27;;
67503;SDS011;54351;49.108;1.502;2022-12-07T03:33:22;511.30;;;249.32;;
67503;SDS011;54351;49.108;1.502;2022-12-07T03:35:52;415.50;;;273.42;;
67503;SDS011;54351;49.108;1.502;2022-12-07T03:38:23;558.75;;;290.30;;
67503;SDS011;54351;49.108;1.502;2022-12-07T03:40:52;473.42;;;283.38;;
67503;SDS011;54351;49.108;1.502;2022-12-07T03:43:20;588.70;;;228.15;;
67503;SDS011;54351;49.108;1.502;2022-12-07T03:48:34;411.67;;;295.13;;
67503;SDS011;54351;49.108;1.502;2022-12-07T03:53:39;407.95;;;306.67;;
67503;SDS011;54351;49.108;1.502;2022-12-07T03:56:07;391.70;;;351.90;;
67503;SDS011;54351;49.108;1.502;2022-12-07T03:58:34;401.73;;;267.20;;
67503;SDS011;54351;49.108;1.502;2022-12-07T04:01:00;328.13;;;265.67;;
67503;SDS011;54351;49.108;1.502;2022-12-07T04:03:26;491.13;;;322.92;;
67503;SDS011;54351;49.108;1.502;2022-12-07T04:05:53;421.15;;;298.92;;
67503;SDS011;54351;49.108;1.502;2022-12-07T04:08:19;453.45;;;412.42;;
67503;SDS011;54351;49.108;1.502;2022-12-07T04:10:45;465.85;;;423.92;;
67503;SDS011;54351;49.108;1.502;2022-12-07T04:13:11;434.35;;;388.27;;
67503;SDS011;54351;49.108;1.502;2022-12-07T04:15:37;498.67;;;382.08;;
67503;SDS011;54351;49.108;1.502;2022-12-07T04:18:03;638.80;;;576.60;;
67503;SDS011;54351;49.108;1.502;2022-12-07T04:20:30;560.35;;;507.08;;
67503;SDS011;54351;49.108;1.502;2022-12-07T04:22:56;482.85;;;367.67;;
67503;SDS011;54351;49.108;1.502;2022-12-07T04:25:22;417.67;;;312.60;;
67503;SDS011;54351;49.108;1.502;2022-12-07T04:27:48;430.58;;;320.65;;
67503;SDS011;54351;49.108;1.502;2022-12-07T04:30:14;429.00;;;303.63;;
67503;SDS011;54351;49.108;1.502;2022-12-07T04:32:40;472.58;;;325.20;;
67503;SDS011;54351;49.108;1.502;2022-12-07T04:35:06;371.58;;;258.80;;
67503;SDS011;54351;49.108;1.502;2022-12-07T04:37:32;435.92;;;275.20;;
67503;SDS011;54351;49.108;1.502;2022-12-07T04:39:58;467.67;;;321.05;;
67503;SDS011;54351;49.108;1.502;2022-12-07T04:42:24;390.80;;;354.45;;
67503;SDS011;54351;49.108;1.502;2022-12-07T04:44:50;508.50;;;348.10;;
67503;SDS011;54351;49.108;1.502;2022-12-07T04:47:17;428.00;;;347.60;;
67503;SDS011;54351;49.108;1.502;2022-12-07T04:49:43;576.08;;;318.88;;
67503;SDS011;54351;49.108;1.502;2022-12-07T04:52:09;516.88;;;312.17;;
67503;SDS011;54351;49.108;1.502;2022-12-07T04:54:35;423.85;;;379.67;;
67503;SDS011;54351;49.108;1.502;2022-12-07T04:57:01;695.53;;;343.40;;
67503;SDS011;54351;49.108;1.502;2022-12-07T04:59:27;715.75;;;384.83;;
67503;SDS011;54351;49.108;1.502;2022-12-07T05:01:53;754.95;;;430.38;;
67503;SDS011;54351;49.108;1.502;2022-12-07T05:04:19;628.25;;;382.55;;
67503;SDS011;54351;49.108;1.502;2022-12-07T05:06:45;468.67;;;309.27;;
67503;SDS011;54351;49.108;1.502;2022-12-07T05:09:11;479.35;;;326.23;;
67503;SDS011;54351;49.108;1.502;2022-12-07T05:11:37;546.80;;;270.45;;
67503;SDS011;54351;49.108;1.502;2022-12-07T05:14:22;630.53;;;420.25;;
67503;SDS011;54351;49.108;1.502;2022-12-07T05:16:48;502.85;;;401.77;;
67503;SDS011;54351;49.108;1.502;2022-12-07T05:19:16;539.05;;;402.85;;
67503;SDS011;54351;49.108;1.502;2022-12-07T05:21:42;382.42;;;347.02;;
67503;SDS011;54351;49.108;1.502;2022-12-07T05:24:09;395.40;;;345.75;;
67503;SDS011;54351;49.108;1.502;2022-12-07T05:26:36;386.42;;;355.15;;
67503;SDS011;54351;49.108;1.502;2022-12-07T05:29:02;527.20;;;306.85;;
67503;SDS011;54351;49.108;1.502;2022-12-07T05:31:28;434.98;;;327.42;;
67503;SDS011;54351;49.108;1.502;2022-12-07T05:33:54;416.08;;;324.75;;
67503;SDS011;54351;49.108;1.502;2022-12-07T05:36:20;480.50;;;332.63;;
67503;SDS011;54351;49.108;1.502;2022-12-07T05:38:46;468.63;;;313.85;;
67503;SDS011;54351;49.108;1.502;2022-12-07T05:41:14;396.00;;;319.20;;
67503;SDS011;54351;49.108;1.502;2022-12-07T05:43:59;455.27;;;333.58;;
67503;SDS011;54351;49.108;1.502;2022-12-07T05:46:26;521.88;;;350.58;;
67503;SDS011;54351;49.108;1.502;2022-12-07T05:48:52;527.65;;;311.77;;
67503;SDS011;54351;49.108;1.502;2022-12-07T05:51:18;663.97;;;516.17;;
67503;SDS011;54351;49.108;1.502;2022-12-07T05:53:44;577.65;;;517.78;;
67503;SDS011;54351;49.108;1.502;2022-12-07T05:56:10;581.22;;;390.42;;
67503;SDS011;54351;49.108;1.502;2022-12-07T05:58:36;650.78;;;344.45;;
67503;SDS011;54351;49.108;1.502;2022-12-07T06:01:21;529.90;;;365.02;;
67503;SDS011;54351;49.108;1.502;2022-12-07T06:03:47;507.80;;;387.00;;
67503;SDS011;54351;49.108;1.502;2022-12-07T06:06:13;509.35;;;327.10;;
67503;SDS011;54351;49.108;1.502;2022-12-07T06:08:39;361.55;;;322.25;;
67503;SDS011;54351;49.108;1.502;2022-12-07T06:11:05;378.02;;;338.33;;
67503;SDS011;54351;49.108;1.502;2022-12-07T06:13:50;422.33;;;304.70;;
67503;SDS011;54351;49.108;1.502;2022-12-07T06:16:16;378.83;;;300.73;;
67503;SDS011;54351;49.108;1.502;2022-12-07T06:18:42;362.13;;;332.73;;
67503;SDS011;54351;49.108;1.502;2022-12-07T06:21:08;339.83;;;313.30;;
67503;SDS011;54351;49.108;1.502;2022-12-07T06:23:34;321.70;;;290.70;;
67503;SDS011;54351;49.108;1.502;2022-12-07T06:26:00;338.88;;;296.48;;
67503;SDS011;54351;49.108;1.502;2022-12-07T06:28:26;444.95;;;298.60;;
67503;SDS011;54351;49.108;1.502;2022-12-07T06:31:00;422.45;;;374.42;;
67503;SDS011;54351;49.108;1.502;2022-12-07T06:33:26;480.08;;;429.08;;
67503;SDS011;54351;49.108;1.502;2022-12-07T06:35:52;397.38;;;332.30;;
67503;SDS011;54351;49.108;1.502;2022-12-07T06:38:18;362.83;;;332.70;;
67503;SDS011;54351;49.108;1.502;2022-12-07T06:40:45;364.52;;;324.08;;
67503;SDS011;54351;49.108;1.502;2022-12-07T06:43:11;424.25;;;378.05;;
67503;SDS011;54351;49.108;1.502;2022-12-07T06:45:37;411.77;;;342.52;;
67503;SDS011;54351;49.108;1.502;2022-12-07T06:48:03;361.90;;;327.15;;
67503;SDS011;54351;49.108;1.502;2022-12-07T06:50:29;377.38;;;339.10;;
67503;SDS011;54351;49.108;1.502;2022-12-07T06:52:55;418.42;;;305.23;;
67503;SDS011;54351;49.108;1.502;2022-12-07T06:55:21;372.58;;;312.45;;
67503;SDS011;54351;49.108;1.502;2022-12-07T06:57:47;375.50;;;317.38;;
67503;SDS011;54351;49.108;1.502;2022-12-07T07:00:14;336.08;;;306.63;;
67503;SDS011;54351;49.108;1.502;2022-12-07T07:02:41;352.42;;;319.42;;
67503;SDS011;54351;49.108;1.502;2022-12-07T07:05:07;346.08;;;321.60;;
67503;SDS011;54351;49.108;1.502;2022-12-07T07:07:33;347.65;;;322.25;;
67503;SDS011;54351;49.108;1.502;2022-12-07T07:09:59;380.20;;;354.00;;
67503;SDS011;54351;49.108;1.502;2022-12-07T07:12:25;442.48;;;415.00;;
67503;SDS011;54351;49.108;1.502;2022-12-07T07:14:52;470.67;;;441.02;;
67503;SDS011;54351;49.108;1.502;2022-12-07T07:17:18;441.30;;;413.85;;
67503;SDS011;54351;49.108;1.502;2022-12-07T07:19:44;410.25;;;385.58;;
67503;SDS011;54351;49.108;1.502;2022-12-07T07:22:10;462.65;;;432.27;;
67503;SDS011;54351;49.108;1.502;2022-12-07T07:24:36;287.95;;;270.75;;
67503;SDS011;54351;49.108;1.502;2022-12-07T07:27:02;370.83;;;347.35;;
67503;SDS011;54351;49.108;1.502;2022-12-07T07:29:28;376.17;;;351.13;;
67503;SDS011;54351;49.108;1.502;2022-12-07T07:31:54;440.73;;;412.67;;
67503;SDS011;54351;49.108;1.502;2022-12-07T07:34:20;330.17;;;310.40;;
67503;SDS011;54351;49.108;1.502;2022-12-07T07:36:46;327.85;;;307.58;;
67503;SDS011;54351;49.108;1.502;2022-12-07T07:39:12;431.27;;;404.08;;
67503;SDS011;54351;49.108;1.502;2022-12-07T07:41:38;474.83;;;443.80;;
67503;SDS011;54351;49.108;1.502;2022-12-07T07:44:05;386.08;;;362.00;;
67503;SDS011;54351;49.108;1.502;2022-12-07T07:46:31;339.63;;;319.73;;
67503;SDS011;54351;49.108;1.502;2022-12-07T07:48:58;340.98;;;320.17;;
67503;SDS011;54351;49.108;1.502;2022-12-07T07:51:24;360.67;;;338.38;;
67503;SDS011;54351;49.108;1.502;2022-12-07T07:53:50;278.70;;;261.40;;
67503;SDS011;54351;49.108;1.502;2022-12-07T07:56:16;318.83;;;300.10;;
67503;SDS011;54351;49.108;1.502;2022-12-07T07:58:42;321.13;;;301.70;;
67503;SDS011;54351;49.108;1.502;2022-12-07T08:01:08;393.88;;;369.40;;
67503;SDS011;54351;49.108;1.502;2022-12-07T08:03:35;320.52;;;300.48;;
67503;SDS011;54351;49.108;1.502;2022-12-07T08:06:02;344.50;;;322.95;;
67503;SDS011;54351;49.108;1.502;2022-12-07T08:08:28;372.77;;;350.27;;
67503;SDS011;54351;49.108;1.502;2022-12-07T08:10:54;375.90;;;352.42;;
67503;SDS011;54351;49.108;1.502;2022-12-07T08:13:20;333.27;;;312.60;;
67503;SDS011;54351;49.108;1.502;2022-12-07T08:15:47;371.67;;;347.80;;
67503;SDS011;54351;49.108;1.502;2022-12-07T08:18:13;474.10;;;443.52;;
67503;SDS011;54351;49.108;1.502;2022-12-07T08:20:40;525.53;;;490.67;;
67503;SDS011;54351;49.108;1.502;2022-12-07T08:23:07;481.52;;;449.65;;
67503;SDS011;54351;49.108;1.502;2022-12-07T08:25:33;376.00;;;351.77;;
67503;SDS011;54351;49.108;1.502;2022-12-07T08:28:00;350.58;;;328.50;;
67503;SDS011;54351;49.108;1.502;2022-12-07T08:30:27;352.73;;;330.55;;
67503;SDS011;54351;49.108;1.502;2022-12-07T08:32:53;431.42;;;403.25;;
67503;SDS011;54351;49.108;1.502;2022-12-07T08:35:19;471.50;;;439.65;;
67503;SDS011;54351;49.108;1.502;2022-12-07T08:37:46;365.70;;;342.05;;
67503;SDS011;54351;49.108;1.502;2022-12-07T08:40:12;335.52;;;313.70;;
67503;SDS011;54351;49.108;1.502;2022-12-07T08:42:41;341.83;;;319.65;;
67503;SDS011;54351;49.108;1.502;2022-12-07T08:45:08;339.20;;;317.83;;
67503;SDS011;54351;49.108;1.502;2022-12-07T08:47:39;359.70;;;336.52;;
67503;SDS011;54351;49.108;1.502;2022-12-07T08:50:06;331.42;;;308.85;;
67503;SDS011;54351;49.108;1.502;2022-12-07T08:52:33;364.33;;;339.80;;
67503;SDS011;54351;49.108;1.502;2022-12-07T08:55:00;352.35;;;329.00;;
67503;SDS011;54351;49.108;1.502;2022-12-07T08:57:27;338.90;;;316.73;;
67503;SDS011;54351;49.108;1.502;2022-12-07T08:59:54;358.55;;;335.45;;
67503;SDS011;54351;49.108;1.502;2022-12-07T09:02:20;374.27;;;349.50;;
67503;SDS011;54351;49.108;1.502;2022-12-07T09:04:46;406.80;;;380.63;;
67503;SDS011;54351;49.108;1.502;2022-12-07T09:07:12;385.52;;;360.75;;
67503;SDS011;54351;49.108;1.502;2022-12-07T09:09:38;428.80;;;399.55;;
67503;SDS011;54351;49.108;1.502;2022-12-07T09:12:04;428.13;;;398.17;;
67503;SDS011;54351;49.108;1.502;2022-12-07T09:14:30;449.83;;;419.02;;
67503;SDS011;54351;49.108;1.502;2022-12-07T09:17:04;398.58;;;371.77;;
67503;SDS011;54351;49.108;1.502;2022-12-07T09:19:30;357.77;;;333.52;;
67503;SDS011;54351;49.108;1.502;2022-12-07T09:21:56;361.77;;;336.88;;
67503;SDS011;54351;49.108;1.502;2022-12-07T09:24:22;371.75;;;347.25;;
67503;SDS011;54351;49.108;1.502;2022-12-07T09:26:48;459.17;;;427.58;;
67503;SDS011;54351;49.108;1.502;2022-12-07T09:29:15;389.02;;;364.55;;
67503;SDS011;54351;49.108;1.502;2022-12-07T09:31:41;356.42;;;332.65;;
67503;SDS011;54351;49.108;1.502;2022-12-07T09:34:07;368.02;;;342.40;;
67503;SDS011;54351;49.108;1.502;2022-12-07T09:36:33;346.50;;;321.92;;
67503;SDS011;54351;49.108;1.502;2022-12-07T09:38:59;392.15;;;366.80;;
67503;SDS011;54351;49.108;1.502;2022-12-07T09:41:25;399.73;;;371.90;;
67503;SDS011;54351;49.108;1.502;2022-12-07T09:43:53;369.67;;;340.17;;
67503;SDS011;54351;49.108;1.502;2022-12-07T09:46:22;401.25;;;369.30;;
67503;SDS011;54351;49.108;1.502;2022-12-07T09:48:48;461.65;;;423.17;;
67503;SDS011;54351;49.108;1.502;2022-12-07T09:53:41;388.85;;;293.95;;
67503;SDS011;54351;49.108;1.502;2022-12-07T09:56:08;406.73;;;308.70;;
67503;SDS011;54351;49.108;1.502;2022-12-07T09:58:34;398.35;;;351.70;;
67503;SDS011;54351;49.108;1.502;2022-12-07T10:05:58;445.17;;;366.20;;
67503;SDS011;54351;49.108;1.502;2022-12-07T10:08:25;420.40;;;336.33;;
67503;SDS011;54351;49.108;1.502;2022-12-07T10:10:52;374.92;;;334.48;;
67503;SDS011;54351;49.108;1.502;2022-12-07T10:13:20;461.13;;;416.65;;
67503;SDS011;54351;49.108;1.502;2022-12-07T10:20:46;469.50;;;424.30;;
67503;SDS011;54351;49.108;1.502;2022-12-07T10:23:15;439.30;;;399.67;;
67503;SDS011;54351;49.108;1.502;2022-12-07T10:25:41;445.70;;;402.42;;
67503;SDS011;54351;49.108;1.502;2022-12-07T10:31:19;394.02;;;356.05;;
67503;SDS011;54351;49.108;1.502;2022-12-07T10:36:00;405.48;;;364.10;;
67503;SDS011;54351;49.108;1.502;2022-12-07T10:38:27;374.23;;;341.73;;
67503;SDS011;54351;49.108;1.502;2022-12-07T10:41:03;360.05;;;326.70;;
67503;SDS011;54351;49.108;1.502;2022-12-07T10:43:29;336.95;;;306.13;;
67503;SDS011;54351;49.108;1.502;2022-12-07T10:46:04;294.70;;;266.20;;
67503;SDS011;54351;49.108;1.502;2022-12-07T10:48:54;290.88;;;266.00;;
67503;SDS011;54351;49.108;1.502;2022-12-07T11:04:57;210.75;;;193.52;;
67503;SDS011;54351;49.108;1.502;2022-12-07T11:12:36;192.02;;;176.38;;
67503;SDS011;54351;49.108;1.502;2022-12-07T11:17:37;332.48;;;310.63;;
67503;SDS011;54351;49.108;1.502;2022-12-07T11:20:14;384.45;;;359.08;;
67503;SDS011;54351;49.108;1.502;2022-12-07T11:23:03;290.88;;;270.20;;
67503;SDS011;54351;49.108;1.502;2022-12-07T11:36:43;264.70;;;245.23;;
67503;SDS011;54351;49.108;1.502;2022-12-07T11:41:46;347.83;;;322.95;;
67503;SDS011;54351;49.108;1.502;2022-12-07T11:50:00;354.10;;;330.08;;
67503;SDS011;54351;49.108;1.502;2022-12-07T11:55:05;332.85;;;310.10;;
67503;SDS011;54351;49.108;1.502;2022-12-07T11:57:42;335.38;;;312.08;;
67503;SDS011;54351;49.108;1.502;2022-12-07T12:00:16;336.20;;;313.10;;
67503;SDS011;54351;49.108;1.502;2022-12-07T12:02:44;356.92;;;333.33;;
67503;SDS011;54351;49.108;1.502;2022-12-07T12:07:39;359.83;;;334.92;;
67503;SDS011;54351;49.108;1.502;2022-12-07T12:10:13;366.77;;;342.38;;
67503;SDS011;54351;49.108;1.502;2022-12-07T12:20:22;367.88;;;338.58;;
67503;SDS011;54351;49.108;1.502;2022-12-07T12:25:20;221.75;;;198.13;;
67503;SDS011;54351;49.108;1.502;2022-12-07T12:27:47;353.73;;;223.90;;
67503;SDS011;54351;49.108;1.502;2022-12-07T12:35:38;189.52;;;171.77;;
67503;SDS011;54351;49.108;1.502;2022-12-07T12:38:24;322.52;;;298.73;;
67503;SDS011;54351;49.108;1.502;2022-12-07T12:40:52;264.85;;;240.10;;
67503;SDS011;54351;49.108;1.502;2022-12-07T12:48:48;329.33;;;304.55;;
67503;SDS011;54351;49.108;1.502;2022-12-07T12:54:32;292.38;;;270.88;;
67503;SDS011;54351;49.108;1.502;2022-12-07T13:01:43;257.95;;;236.52;;
67503;SDS011;54351;49.108;1.502;2022-12-07T13:06:44;329.55;;;306.67;;
67503;SDS011;54351;49.108;1.502;2022-12-07T13:09:19;387.38;;;360.17;;
67503;SDS011;54351;49.108;1.502;2022-12-07T13:11:47;360.48;;;335.52;;
67503;SDS011;54351;49.108;1.502;2022-12-07T13:16:57;286.83;;;265.45;;
67503;SDS011;54351;49.108;1.502;2022-12-07T13:24:56;300.15;;;277.38;;
67503;SDS011;54351;49.108;1.502;2022-12-07T13:27:22;293.42;;;270.63;;
67503;SDS011;54351;49.108;1.502;2022-12-07T13:29:51;370.38;;;343.02;;
67503;SDS011;54351;49.108;1.502;2022-12-07T13:32:22;387.45;;;360.13;;
67503;SDS011;54351;49.108;1.502;2022-12-07T13:40:00;351.13;;;327.17;;
67503;SDS011;54351;49.108;1.502;2022-12-07T13:42:34;339.30;;;315.67;;
67503;SDS011;54351;49.108;1.502;2022-12-07T13:45:13;363.25;;;339.23;;
67503;SDS011;54351;49.108;1.502;2022-12-07T13:53:11;299.63;;;280.23;;
67503;SDS011;54351;49.108;1.502;2022-12-07T13:55:38;303.33;;;283.33;;
67503;SDS011;54351;49.108;1.502;2022-12-07T13:58:09;265.17;;;248.02;;
67503;SDS011;54351;49.108;1.502;2022-12-07T14:00:36;287.65;;;269.02;;
67503;SDS011;54351;49.108;1.502;2022-12-07T14:05:40;309.55;;;289.40;;
67503;SDS011;54351;49.108;1.502;2022-12-07T14:13:03;325.85;;;304.75;;
67503;SDS011;54351;49.108;1.502;2022-12-07T14:15:33;357.75;;;335.27;;
67503;SDS011;54351;49.108;1.502;2022-12-07T14:18:01;351.08;;;328.30;;
67503;SDS011;54351;49.108;1.502;2022-12-07T14:23:00;373.73;;;348.58;;
67503;SDS011;54351;49.108;1.502;2022-12-07T14:25:44;425.20;;;397.88;;
67503;SDS011;54351;49.108;1.502;2022-12-07T14:28:24;374.48;;;350.70;;
67503;SDS011;54351;49.108;1.502;2022-12-07T14:30:51;367.85;;;343.67;;
67503;SDS011;54351;49.108;1.502;2022-12-07T14:33:17;342.90;;;320.30;;
67503;SDS011;54351;49.108;1.502;2022-12-07T14:35:44;265.25;;;246.82;;
67503;SDS011;54351;49.108;1.502;2022-12-07T14:38:11;240.52;;;224.25;;
67503;SDS011;54351;49.108;1.502;2022-12-07T14:40:37;320.73;;;299.70;;
67503;SDS011;54351;49.108;1.502;2022-12-07T14:43:11;285.23;;;266.17;;
67503;SDS011;54351;49.108;1.502;2022-12-07T14:45:37;171.27;;;158.40;;
67503;SDS011;54351;49.108;1.502;2022-12-07T14:48:04;166.88;;;155.13;;
67503;SDS011;54351;49.108;1.502;2022-12-07T14:50:30;131.55;;;121.45;;
67503;SDS011;54351;49.108;1.502;2022-12-07T14:53:01;137.27;;;126.50;;
67503;SDS011;54351;49.108;1.502;2022-12-07T14:55:30;125.63;;;115.45;;
67503;SDS011;54351;49.108;1.502;2022-12-07T14:57:57;138.80;;;127.47;;
67503;SDS011;54351;49.108;1.502;2022-12-07T15:00:24;117.47;;;107.43;;
67503;SDS011;54351;49.108;1.502;2022-12-07T15:02:51;126.03;;;116.35;;
67503;SDS011;54351;49.108;1.502;2022-12-07T15:05:18;147.07;;;135.63;;
67503;SDS011;54351;49.108;1.502;2022-12-07T15:07:45;123.82;;;113.82;;
67503;SDS011;54351;49.108;1.502;2022-12-07T15:10:16;128.88;;;117.93;;
67503;SDS011;54351;49.108;1.502;2022-12-07T15:12:43;125.05;;;114.38;;
67503;SDS011;54351;49.108;1.502;2022-12-07T15:15:09;110.63;;;101.30;;
67503;SDS011;54351;49.108;1.502;2022-12-07T15:17:36;121.40;;;111.18;;
67503;SDS011;54351;49.108;1.502;2022-12-07T15:20:02;114.72;;;104.93;;
67503;SDS011;54351;49.108;1.502;2022-12-07T15:22:28;122.18;;;112.03;;
67503;SDS011;54351;49.108;1.502;2022-12-07T15:24:56;117.05;;;107.60;;
67503;SDS011;54351;49.108;1.502;2022-12-07T15:27:22;111.90;;;102.60;;
67503;SDS011;54351;49.108;1.502;2022-12-07T15:29:48;151.02;;;139.10;;
67503;SDS011;54351;49.108;1.502;2022-12-07T15:32:14;127.68;;;117.53;;
67503;SDS011;54351;49.108;1.502;2022-12-07T15:34:40;145.13;;;133.60;;
67503;SDS011;54351;49.108;1.502;2022-12-07T15:37:07;104.53;;;95.65;;
67503;SDS011;54351;49.108;1.502;2022-12-07T15:39:33;115.35;;;106.22;;
67503;SDS011;54351;49.108;1.502;2022-12-07T15:41:59;98.45;;;90.07;;
67503;SDS011;54351;49.108;1.502;2022-12-07T15:44:25;107.15;;;98.43;;
67503;SDS011;54351;49.108;1.502;2022-12-07T15:47:10;108.25;;;99.00;;
67503;SDS011;54351;49.108;1.502;2022-12-07T15:49:36;146.40;;;135.00;;
67503;SDS011;54351;49.108;1.502;2022-12-07T15:52:02;104.47;;;95.32;;
67503;SDS011;54351;49.108;1.502;2022-12-07T15:54:29;124.82;;;115.03;;
67503;SDS011;54351;49.108;1.502;2022-12-07T15:56:55;112.28;;;103.45;;
67503;SDS011;54351;49.108;1.502;2022-12-07T15:59:21;173.63;;;160.77;;
67503;SDS011;54351;49.108;1.502;2022-12-07T16:01:48;125.05;;;115.30;;
67503;SDS011;54351;49.108;1.502;2022-12-07T16:04:14;182.20;;;167.93;;
67503;SDS011;54351;49.108;1.502;2022-12-07T16:06:40;175.50;;;161.88;;
67503;SDS011;54351;49.108;1.502;2022-12-07T16:09:06;172.90;;;159.63;;
67503;SDS011;54351;49.108;1.502;2022-12-07T16:11:32;195.95;;;180.80;;
67503;SDS011;54351;49.108;1.502;2022-12-07T16:13:58;130.07;;;119.68;;
67503;SDS011;54351;49.108;1.502;2022-12-07T16:16:24;150.52;;;139.20;;
67503;SDS011;54351;49.108;1.502;2022-12-07T16:18:51;267.90;;;248.23;;
67503;SDS011;54351;49.108;1.502;2022-12-07T16:21:17;226.55;;;210.00;;
67503;SDS011;54351;49.108;1.502;2022-12-07T16:23:43;218.52;;;202.02;;
67503;SDS011;54351;49.108;1.502;2022-12-07T16:26:14;183.88;;;170.02;;
67503;SDS011;54351;49.108;1.502;2022-12-07T16:28:40;280.15;;;259.52;;
67503;SDS011;54351;49.108;1.502;2022-12-07T16:31:14;194.52;;;179.20;;
67503;SDS011;54351;49.108;1.502;2022-12-07T16:33:41;227.05;;;209.70;;
67503;SDS011;54351;49.108;1.502;2022-12-07T16:36:08;168.40;;;155.55;;
67503;SDS011;54351;49.108;1.502;2022-12-07T16:38:35;180.13;;;166.52;;
67503;SDS011;54351;49.108;1.502;2022-12-07T16:41:01;173.75;;;160.70;;
67503;SDS011;54351;49.108;1.502;2022-12-07T16:43:27;178.70;;;165.02;;
67503;SDS011;54351;49.108;1.502;2022-12-07T16:45:53;209.40;;;193.75;;